createdAt,value
2018-10-06T00:00:03.288Z,58.72
2018-10-06T00:02:30.951Z,58.81
2018-10-06T00:04:58.606Z,59.13
2018-10-06T00:07:26.669Z,58.85
2018-10-06T00:09:54.430Z,58.82
2018-10-06T00:12:22.078Z,58.80
2018-10-06T00:14:49.724Z,58.75
2018-10-06T00:17:17.396Z,58.59
2018-10-06T00:19:45.031Z,58.96
2018-10-06T00:22:12.675Z,58.85
2018-10-06T00:24:40.363Z,58.86
2018-10-06T00:27:07.983Z,58.89
2018-10-06T00:29:35.873Z,58.87
2018-10-06T00:32:03.527Z,58.95
2018-10-06T00:34:31.192Z,58.92
2018-10-06T00:36:58.832Z,58.86
2018-10-06T00:39:26.502Z,58.98
2018-10-06T00:41:54.109Z,59.01
2018-10-06T00:44:21.737Z,58.90
2018-10-06T00:46:49.381Z,58.82
2018-10-06T00:49:17.059Z,59.41
2018-10-06T00:51:44.712Z,59.01
2018-10-06T00:54:12.316Z,58.88
2018-10-06T00:56:40.040Z,59.35
2018-10-06T00:59:07.712Z,59.18
2018-10-06T01:01:35.457Z,59.07
2018-10-06T01:04:03.069Z,59.13
2018-10-06T01:06:30.824Z,59.00
2018-10-06T01:08:58.449Z,58.88
2018-10-06T01:11:26.273Z,59.01
2018-10-06T01:13:54.304Z,59.26
2018-10-06T01:16:21.952Z,59.08
2018-10-06T01:18:49.605Z,59.19
2018-10-06T01:21:17.234Z,59.02
2018-10-06T01:23:44.855Z,59.14
2018-10-06T01:26:12.456Z,59.20
2018-10-06T01:28:40.127Z,59.08
2018-10-06T01:31:07.788Z,59.16
2018-10-06T01:33:35.461Z,59.14
2018-10-06T01:36:03.171Z,59.09
2018-10-06T01:38:30.837Z,59.29
2018-10-06T01:40:58.539Z,59.59
2018-10-06T01:43:26.181Z,59.15
2018-10-06T01:45:53.799Z,59.13
2018-10-06T01:48:21.438Z,58.91
2018-10-06T01:50:49.108Z,59.30
2018-10-06T01:53:16.695Z,59.27
2018-10-06T01:55:44.361Z,59.25
2018-10-06T01:58:11.995Z,59.51
2018-10-06T02:00:39.593Z,59.23
2018-10-06T02:03:07.307Z,58.92
2018-10-06T02:05:34.940Z,58.96
2018-10-06T02:08:02.560Z,59.01
2018-10-06T02:10:30.243Z,59.21
2018-10-06T02:12:57.865Z,59.37
2018-10-06T02:15:25.437Z,59.17
2018-10-06T02:17:53.073Z,59.47
2018-10-06T02:20:20.660Z,59.27
2018-10-06T02:22:48.305Z,59.36
2018-10-06T02:25:15.990Z,59.02
2018-10-06T02:27:43.656Z,59.57
2018-10-06T02:30:11.449Z,59.21
2018-10-06T02:32:39.045Z,58.96
2018-10-06T02:35:06.664Z,59.36
2018-10-06T02:37:34.340Z,59.45
2018-10-06T02:40:02.066Z,59.26
2018-10-06T02:42:29.643Z,59.32
2018-10-06T02:44:57.260Z,59.31
2018-10-06T02:47:24.898Z,59.30
2018-10-06T02:49:52.547Z,59.57
2018-10-06T02:52:20.203Z,59.69
2018-10-06T02:54:47.879Z,59.42
2018-10-06T02:57:15.489Z,59.37
2018-10-06T02:59:43.144Z,59.68
2018-10-06T03:02:10.767Z,59.71
2018-10-06T03:04:38.408Z,59.46
2018-10-06T03:07:06.029Z,59.05
2018-10-06T03:09:33.666Z,59.47
2018-10-06T03:12:01.306Z,59.41
2018-10-06T03:14:28.964Z,59.34
2018-10-06T03:16:56.619Z,59.40
2018-10-06T03:19:24.209Z,59.34
2018-10-06T03:21:51.846Z,59.41
2018-10-06T03:24:19.447Z,59.25
2018-10-06T03:26:47.179Z,59.33
2018-10-06T03:29:14.836Z,59.42
2018-10-06T03:31:42.513Z,59.49
2018-10-06T03:34:10.137Z,59.49
2018-10-06T03:36:37.775Z,59.12
2018-10-06T03:39:05.862Z,59.26
2018-10-06T03:41:33.571Z,59.03
2018-10-06T03:44:01.177Z,59.48
2018-10-06T03:46:28.792Z,59.54
2018-10-06T03:48:56.404Z,59.51
2018-10-06T03:51:24.048Z,59.41
2018-10-06T03:53:51.673Z,59.85
2018-10-06T03:56:19.272Z,59.06
2018-10-06T03:58:47.047Z,59.47
2018-10-06T04:01:14.683Z,59.76
2018-10-06T04:03:42.281Z,59.20
2018-10-06T04:06:09.890Z,59.96
2018-10-06T04:08:37.468Z,59.35
2018-10-06T04:11:05.485Z,59.42
2018-10-06T04:13:33.087Z,59.30
2018-10-06T04:16:00.689Z,59.27
2018-10-06T04:18:28.361Z,59.37
2018-10-06T04:20:56.018Z,59.25
2018-10-06T04:23:23.670Z,59.41
2018-10-06T04:25:51.283Z,59.55
2018-10-06T04:28:18.991Z,59.56
2018-10-06T04:30:46.616Z,59.82
2018-10-06T04:33:14.297Z,59.56
2018-10-06T04:35:41.888Z,59.56
2018-10-06T04:38:09.607Z,59.54
2018-10-06T04:40:37.780Z,59.81
2018-10-06T04:43:05.460Z,59.93
2018-10-06T04:45:33.056Z,59.71
2018-10-06T04:48:00.617Z,59.38
2018-10-06T04:50:28.353Z,59.54
2018-10-06T04:52:55.944Z,59.88
2018-10-06T04:55:23.611Z,59.64
2018-10-06T04:57:51.230Z,59.58
2018-10-06T05:00:18.825Z,59.53
2018-10-06T05:02:46.422Z,59.60
2018-10-06T05:05:14.105Z,59.34
2018-10-06T05:07:41.710Z,59.20
2018-10-06T05:10:09.304Z,59.89
2018-10-06T05:12:36.922Z,59.61
2018-10-06T05:15:04.681Z,59.31
2018-10-06T05:17:32.269Z,59.53
2018-10-06T05:19:59.894Z,59.69
2018-10-06T05:22:27.555Z,59.26
2018-10-06T05:24:55.156Z,59.91
2018-10-06T05:27:22.744Z,59.36
2018-10-06T05:29:50.346Z,59.42
2018-10-06T05:32:17.958Z,59.90
2018-10-06T05:34:45.688Z,59.56
2018-10-06T05:37:13.461Z,59.26
2018-10-06T05:39:41.044Z,59.72
2018-10-06T05:42:08.696Z,59.90
2018-10-06T05:44:36.337Z,59.54
2018-10-06T05:47:04.035Z,59.43
2018-10-06T05:49:31.644Z,59.58
2018-10-06T05:51:59.302Z,59.85
2018-10-06T05:54:26.999Z,59.21
2018-10-06T05:56:54.590Z,59.80
2018-10-06T05:59:22.227Z,59.37
2018-10-06T06:01:49.880Z,59.18
2018-10-06T06:04:17.605Z,59.01
2018-10-06T06:06:45.167Z,59.25
2018-10-06T06:09:12.824Z,59.07
2018-10-06T06:11:40.450Z,59.33
2018-10-06T06:14:08.113Z,59.63
2018-10-06T06:16:35.723Z,58.97
2018-10-06T06:19:03.304Z,58.94
2018-10-06T06:21:30.914Z,58.92
2018-10-06T06:23:58.725Z,59.58
2018-10-06T06:26:26.253Z,58.89
2018-10-06T06:28:53.887Z,59.09
2018-10-06T06:31:21.519Z,58.75
2018-10-06T06:33:49.159Z,59.39
2018-10-06T06:36:16.738Z,58.94
2018-10-06T06:38:44.433Z,59.05
2018-10-06T06:41:12.171Z,59.04
2018-10-06T06:43:39.819Z,58.97
2018-10-06T06:46:07.808Z,59.02
2018-10-06T06:48:35.459Z,58.69
2018-10-06T06:51:03.047Z,59.16
2018-10-06T06:53:30.716Z,58.86
2018-10-06T06:55:58.378Z,58.93
2018-10-06T06:58:26.032Z,59.30
2018-10-06T07:00:53.615Z,58.43
2018-10-06T07:03:21.253Z,58.93
2018-10-06T07:05:48.909Z,58.76
2018-10-06T07:08:16.516Z,58.58
2018-10-06T07:10:44.174Z,58.86
2018-10-06T07:13:11.801Z,58.92
2018-10-06T07:15:39.740Z,58.73
2018-10-06T07:18:07.341Z,58.69
2018-10-06T07:20:34.928Z,58.64
2018-10-06T07:23:02.601Z,58.70
2018-10-06T07:25:30.222Z,58.54
2018-10-06T07:27:57.968Z,58.47
2018-10-06T07:30:25.620Z,58.55
2018-10-06T07:32:53.267Z,58.45
2018-10-06T07:35:20.852Z,58.45
2018-10-06T07:37:48.582Z,58.35
2018-10-06T07:40:16.180Z,58.43
2018-10-06T07:42:43.771Z,58.39
2018-10-06T07:45:11.389Z,58.37
2018-10-06T07:47:39.037Z,58.23
2018-10-06T07:50:06.633Z,58.10
2018-10-06T07:52:34.292Z,58.20
2018-10-06T07:55:01.932Z,58.16
2018-10-06T07:57:29.610Z,58.28
2018-10-06T07:59:57.269Z,58.26
2018-10-06T08:02:24.873Z,58.00
2018-10-06T08:04:52.550Z,58.00
2018-10-06T08:07:20.120Z,58.43
2018-10-06T08:09:47.787Z,58.00
2018-10-06T08:12:15.439Z,57.90
2018-10-06T08:14:43.049Z,57.73
2018-10-06T08:17:10.707Z,57.83
2018-10-06T08:19:38.293Z,57.74
2018-10-06T08:22:05.950Z,57.49
2018-10-06T08:24:33.629Z,57.73
2018-10-06T08:27:01.293Z,57.64
2018-10-06T08:29:29.016Z,57.37
2018-10-06T08:31:56.669Z,57.41
2018-10-06T08:34:24.327Z,57.48
2018-10-06T08:36:51.935Z,57.29
2018-10-06T08:39:19.624Z,57.07
2018-10-06T08:41:47.285Z,57.17
2018-10-06T08:44:14.942Z,57.01
2018-10-06T08:46:42.524Z,57.05
2018-10-06T08:49:10.163Z,57.17
2018-10-06T08:51:37.792Z,57.08
2018-10-06T08:54:05.487Z,56.78
2018-10-06T08:56:33.222Z,56.71
2018-10-06T08:59:00.799Z,56.74
2018-10-06T09:01:28.387Z,56.71
2018-10-06T09:03:55.991Z,56.82
2018-10-06T09:06:23.622Z,56.79
2018-10-06T09:08:51.280Z,56.50
2018-10-06T09:11:18.933Z,56.61
2018-10-06T09:13:46.629Z,56.66
2018-10-06T09:16:14.297Z,56.85
2018-10-06T09:18:41.899Z,56.84
2018-10-06T09:21:09.563Z,56.70
2018-10-06T09:23:37.206Z,56.63
2018-10-06T09:26:04.827Z,56.44
2018-10-06T09:28:32.467Z,56.41
2018-10-06T09:31:00.136Z,56.64
2018-10-06T09:33:27.799Z,56.43
2018-10-06T09:35:55.458Z,56.34
2018-10-06T09:38:23.120Z,56.34
2018-10-06T09:40:50.808Z,56.55
2018-10-06T09:43:18.498Z,56.24
2018-10-06T09:45:46.090Z,56.23
2018-10-06T09:48:13.737Z,56.17
2018-10-06T09:50:41.315Z,56.13
2018-10-06T09:53:08.942Z,56.36
2018-10-06T09:55:36.594Z,56.27
2018-10-06T09:58:04.283Z,56.13
2018-10-06T10:00:37.633Z,56.08
2018-10-06T10:03:10.892Z,56.03
2018-10-06T10:05:46.476Z,56.02
2018-10-06T10:08:14.151Z,55.97
2018-10-06T10:10:41.744Z,56.04
2018-10-06T10:13:09.429Z,55.76
2018-10-06T10:15:37.083Z,55.92
2018-10-06T10:18:04.916Z,55.71
2018-10-06T10:20:32.474Z,55.89
2018-10-06T10:23:00.274Z,55.71
2018-10-06T10:25:27.905Z,55.65
2018-10-06T10:27:55.575Z,55.58
2018-10-06T10:30:23.275Z,55.61
2018-10-06T10:32:50.914Z,55.40
2018-10-06T10:35:18.621Z,55.37
2018-10-06T10:37:46.185Z,55.21
2018-10-06T10:40:13.786Z,55.44
2018-10-06T10:42:41.468Z,55.15
2018-10-06T10:45:09.161Z,55.23
2018-10-06T10:47:36.773Z,55.20
2018-10-06T10:50:04.388Z,55.17
2018-10-06T10:52:32.087Z,55.20
2018-10-06T10:54:59.696Z,55.09
2018-10-06T10:57:27.510Z,55.04
2018-10-06T10:59:55.331Z,55.03
2018-10-06T11:02:22.873Z,55.07
2018-10-06T11:04:50.553Z,54.50
2018-10-06T11:07:18.298Z,54.71
2018-10-06T11:09:45.955Z,54.74
2018-10-06T11:12:13.547Z,54.82
2018-10-06T11:14:41.220Z,54.68
2018-10-06T11:17:08.870Z,54.74
2018-10-06T11:19:36.490Z,54.96
2018-10-06T11:22:04.185Z,54.62
2018-10-06T11:24:31.772Z,54.67
2018-10-06T11:26:59.395Z,54.73
2018-10-06T11:29:27.034Z,54.64
2018-10-06T11:31:54.748Z,54.49
2018-10-06T11:34:22.440Z,54.58
2018-10-06T11:36:50.103Z,54.76
2018-10-06T11:39:17.781Z,54.40
2018-10-06T11:41:45.408Z,54.59
2018-10-06T11:44:13.075Z,54.16
2018-10-06T11:46:40.749Z,54.53
2018-10-06T11:49:08.413Z,54.65
2018-10-06T11:51:36.052Z,54.39
2018-10-06T11:54:03.669Z,53.86
2018-10-06T11:56:31.265Z,54.20
2018-10-06T11:58:59.022Z,54.60
2018-10-06T12:01:26.671Z,54.04
2018-10-06T12:03:54.377Z,54.38
2018-10-06T12:06:22.034Z,54.46
2018-10-06T12:08:49.692Z,54.36
2018-10-06T12:11:17.376Z,54.39
2018-10-06T12:13:44.997Z,54.05
2018-10-06T12:16:12.642Z,53.61
2018-10-06T12:18:40.253Z,53.50
2018-10-06T12:21:07.915Z,54.17
2018-10-06T12:23:35.676Z,53.64
2018-10-06T12:26:03.326Z,54.10
2018-10-06T12:28:30.951Z,54.01
2018-10-06T12:30:58.553Z,54.05
2018-10-06T12:33:26.209Z,53.98
2018-10-06T12:35:53.852Z,53.96
2018-10-06T12:38:21.543Z,54.01
2018-10-06T12:40:49.148Z,53.34
2018-10-06T12:43:16.801Z,53.91
2018-10-06T12:45:44.391Z,53.38
2018-10-06T12:48:12.107Z,53.65
2018-10-06T12:50:39.719Z,53.33
2018-10-06T12:53:07.304Z,53.20
2018-10-06T12:55:34.900Z,53.05
2018-10-06T12:58:02.516Z,53.70
2018-10-06T13:00:30.197Z,53.02
2018-10-06T13:02:57.761Z,53.19
2018-10-06T13:05:25.394Z,53.55
2018-10-06T13:07:52.982Z,53.35
2018-10-06T13:10:20.793Z,52.92
2018-10-06T13:12:49.617Z,53.47
2018-10-06T13:15:17.304Z,53.40
2018-10-06T13:17:44.975Z,53.33
2018-10-06T13:20:12.653Z,52.79
2018-10-06T13:22:40.268Z,53.14
2018-10-06T13:25:09.017Z,52.94
2018-10-06T13:27:37.297Z,53.17
2018-10-06T13:30:04.984Z,52.50
2018-10-06T13:32:32.547Z,52.39
2018-10-06T13:35:00.193Z,52.96
2018-10-06T13:37:27.831Z,52.17
2018-10-06T13:39:55.644Z,52.17
2018-10-06T13:42:23.312Z,52.09
2018-10-06T13:44:50.990Z,52.65
2018-10-06T13:47:18.547Z,52.50
2018-10-06T13:49:46.272Z,52.28
2018-10-06T13:52:13.896Z,51.39
2018-10-06T13:54:41.532Z,51.46
2018-10-06T13:57:09.177Z,51.82
2018-10-06T13:59:36.811Z,51.65
2018-10-06T14:02:04.475Z,51.39
2018-10-06T14:04:32.527Z,51.30
2018-10-06T14:07:00.183Z,50.68
2018-10-06T14:09:27.895Z,51.14
2018-10-06T14:11:55.480Z,50.33
2018-10-06T14:14:23.134Z,50.30
2018-10-06T14:16:50.719Z,50.26
2018-10-06T14:19:18.352Z,50.65
2018-10-06T14:21:46.054Z,50.52
2018-10-06T14:24:13.652Z,50.21
2018-10-06T14:26:41.298Z,50.83
2018-10-06T14:29:08.978Z,51.25
2018-10-06T14:31:36.664Z,51.10
2018-10-06T14:34:04.322Z,51.51
2018-10-06T14:36:31.971Z,51.14
2018-10-06T14:38:59.593Z,51.18
2018-10-06T14:41:27.478Z,50.99
2018-10-06T14:43:55.145Z,49.79
2018-10-06T14:46:22.840Z,49.88
2018-10-06T14:48:50.445Z,49.70
2018-10-06T14:51:18.048Z,49.29
2018-10-06T14:53:45.712Z,49.63
2018-10-06T14:56:13.337Z,49.19
2018-10-06T14:58:40.945Z,49.70
2018-10-06T15:01:08.668Z,48.81
2018-10-06T15:03:36.287Z,48.96
2018-10-06T15:06:04.055Z,48.49
2018-10-06T15:08:31.802Z,49.15
2018-10-06T15:10:59.425Z,48.20
2018-10-06T15:13:27.043Z,48.35
2018-10-06T15:15:54.782Z,48.45
2018-10-06T15:18:22.461Z,48.95
2018-10-06T15:20:50.078Z,48.73
2018-10-06T15:23:17.763Z,48.81
2018-10-06T15:25:45.368Z,48.18
2018-10-06T15:28:13.263Z,48.64
2018-10-06T15:30:40.681Z,47.70
2018-10-06T15:33:08.267Z,48.42
2018-10-06T15:35:35.921Z,47.98
2018-10-06T15:38:03.610Z,48.78
2018-10-06T15:40:31.272Z,48.19
2018-10-06T15:42:58.944Z,48.79
2018-10-06T15:45:26.536Z,48.77
2018-10-06T15:47:54.191Z,48.33
2018-10-06T15:50:21.845Z,48.52
2018-10-06T15:52:49.521Z,49.28
2018-10-06T15:55:17.210Z,49.24
2018-10-06T15:57:44.841Z,50.21
2018-10-06T16:00:12.525Z,50.07
2018-10-06T16:02:40.164Z,50.72
2018-10-06T16:05:07.806Z,50.91
2018-10-06T16:07:35.392Z,50.44
2018-10-06T16:10:06.007Z,50.74
2018-10-06T16:12:33.741Z,51.42
2018-10-06T16:15:01.373Z,51.34
2018-10-06T16:17:29.007Z,51.23
2018-10-06T16:19:56.722Z,51.37
2018-10-06T16:22:24.344Z,52.13
2018-10-06T16:24:52.023Z,52.14
2018-10-06T16:27:19.720Z,51.61
2018-10-06T16:29:47.367Z,52.31
2018-10-06T16:32:15.070Z,51.80
2018-10-06T16:34:42.687Z,52.59
2018-10-06T16:37:10.296Z,52.36
2018-10-06T16:39:37.973Z,52.49
2018-10-06T16:42:05.705Z,52.30
2018-10-06T16:44:33.337Z,52.41
2018-10-06T16:47:01.057Z,53.13
2018-10-06T16:49:28.739Z,53.19
2018-10-06T16:51:56.379Z,52.68
2018-10-06T16:54:24.108Z,52.79
2018-10-06T16:56:51.678Z,52.78
2018-10-06T16:59:19.371Z,53.66
2018-10-06T17:01:47.086Z,53.46
2018-10-06T17:04:14.737Z,53.12
2018-10-06T17:06:42.383Z,53.82
2018-10-06T17:09:11.041Z,53.44
2018-10-06T17:11:38.712Z,53.39
2018-10-06T17:14:06.695Z,53.52
2018-10-06T17:16:34.332Z,54.16
2018-10-06T17:19:02.216Z,53.90
2018-10-06T17:21:29.861Z,53.95
2018-10-06T17:23:57.566Z,54.39
2018-10-06T17:26:25.208Z,54.41
2018-10-06T17:28:52.887Z,53.77
2018-10-06T17:31:20.496Z,54.50
2018-10-06T17:33:48.149Z,54.68
2018-10-06T17:36:15.804Z,54.16
2018-10-06T17:38:43.526Z,54.63
2018-10-06T17:41:11.221Z,54.71
2018-10-06T17:43:38.974Z,54.23
2018-10-06T17:46:06.624Z,54.86
2018-10-06T17:48:34.293Z,54.29
2018-10-06T17:51:01.968Z,55.00
2018-10-06T17:53:29.591Z,54.43
2018-10-06T17:55:57.223Z,55.06
2018-10-06T17:58:24.857Z,54.62
2018-10-06T18:00:52.578Z,55.18
2018-10-06T18:03:20.261Z,54.57
2018-10-06T18:05:47.910Z,54.68
2018-10-06T18:08:15.531Z,54.77
2018-10-06T18:10:43.213Z,54.78
2018-10-06T18:13:10.840Z,55.03
2018-10-06T18:15:38.468Z,55.16
2018-10-06T18:18:06.306Z,55.39
2018-10-06T18:20:34.061Z,55.53
2018-10-06T18:23:01.600Z,54.94
2018-10-06T18:25:29.232Z,55.44
2018-10-06T18:27:56.878Z,54.97
2018-10-06T18:30:24.514Z,54.68
2018-10-06T18:32:52.120Z,55.59
2018-10-06T18:35:19.790Z,55.06
2018-10-06T18:37:47.410Z,55.27
2018-10-06T18:40:15.014Z,55.39
2018-10-06T18:42:42.653Z,55.85
2018-10-06T18:45:10.311Z,55.23
2018-10-06T18:47:37.972Z,55.91
2018-10-06T18:50:05.580Z,55.83
2018-10-06T18:52:33.215Z,55.32
2018-10-06T18:55:00.862Z,55.45
2018-10-06T18:57:28.493Z,55.54
2018-10-06T18:59:56.127Z,55.97
2018-10-06T19:02:23.715Z,56.04
2018-10-06T19:04:51.308Z,56.05
2018-10-06T19:07:18.949Z,55.54
2018-10-06T19:09:46.569Z,56.24
2018-10-06T19:12:14.246Z,56.21
2018-10-06T19:14:41.856Z,55.77
2018-10-06T19:17:09.523Z,55.70
2018-10-06T19:19:37.160Z,56.09
2018-10-06T19:22:04.830Z,55.94
2018-10-06T19:24:32.355Z,56.14
2018-10-06T19:27:00.048Z,55.99
2018-10-06T19:29:27.720Z,56.17
2018-10-06T19:31:55.371Z,55.92
2018-10-06T19:34:23.052Z,56.41
2018-10-06T19:36:50.680Z,56.41
2018-10-06T19:39:19.204Z,55.96
2018-10-06T19:41:47.402Z,56.28
2018-10-06T19:44:15.826Z,56.79
2018-10-06T19:46:43.456Z,56.50
2018-10-06T19:49:11.028Z,56.20
2018-10-06T19:51:38.690Z,56.36
2018-10-06T19:54:06.477Z,56.54
2018-10-06T19:56:34.151Z,56.40
2018-10-06T19:59:01.743Z,56.58
2018-10-06T20:01:29.332Z,56.53
2018-10-06T20:03:57.061Z,56.48
2018-10-06T20:06:24.661Z,56.96
2018-10-06T20:08:52.287Z,56.43
2018-10-06T20:11:19.967Z,56.49
2018-10-06T20:13:47.552Z,56.59
2018-10-06T20:16:15.196Z,56.62
2018-10-06T20:18:42.788Z,56.77
2018-10-06T20:21:10.438Z,56.72
2018-10-06T20:23:38.090Z,56.83
2018-10-06T20:26:05.732Z,56.71
2018-10-06T20:28:33.325Z,56.72
2018-10-06T20:31:00.984Z,56.87
2018-10-06T20:33:28.620Z,56.80
2018-10-06T20:35:56.215Z,57.12
2018-10-06T20:38:23.845Z,56.92
2018-10-06T20:40:51.528Z,56.84
2018-10-06T20:43:19.163Z,56.81
2018-10-06T20:45:46.813Z,56.81
2018-10-06T20:48:14.539Z,57.04
2018-10-06T20:50:42.140Z,57.19
2018-10-06T20:53:09.816Z,57.12
2018-10-06T20:55:37.527Z,56.98
2018-10-06T20:58:05.179Z,57.00
2018-10-06T21:00:32.808Z,57.05
2018-10-06T21:03:00.489Z,57.19
2018-10-06T21:05:28.113Z,57.10
2018-10-06T21:07:55.754Z,57.16
2018-10-06T21:10:23.567Z,57.27
2018-10-06T21:12:51.279Z,57.30
2018-10-06T21:15:18.936Z,57.36
2018-10-06T21:17:46.812Z,57.30
2018-10-06T21:20:14.484Z,57.19
2018-10-06T21:22:42.115Z,57.32
2018-10-06T21:25:09.768Z,57.37
2018-10-06T21:27:37.429Z,57.22
2018-10-06T21:30:05.095Z,57.39
2018-10-06T21:32:32.724Z,57.42
2018-10-06T21:35:00.375Z,57.42
2018-10-06T21:37:28.055Z,57.42
2018-10-06T21:39:55.672Z,57.50
2018-10-06T21:42:23.332Z,57.42
2018-10-06T21:44:50.975Z,57.58
2018-10-06T21:47:18.630Z,57.54
2018-10-06T21:49:46.309Z,57.45
2018-10-06T21:52:13.960Z,57.42
2018-10-06T21:54:41.613Z,57.59
2018-10-06T21:57:09.186Z,57.51
2018-10-06T21:59:36.822Z,57.60
2018-10-06T22:02:04.478Z,57.52
2018-10-06T22:04:32.087Z,57.45
2018-10-06T22:06:59.756Z,57.67
2018-10-06T22:09:27.384Z,57.64
2018-10-06T22:11:55.164Z,57.54
2018-10-06T22:14:22.921Z,57.75
2018-10-06T22:16:50.531Z,57.92
2018-10-06T22:19:18.197Z,57.74
2018-10-06T22:21:45.801Z,57.88
2018-10-06T22:24:13.480Z,57.90
2018-10-06T22:26:41.061Z,57.75
2018-10-06T22:29:08.793Z,57.82
2018-10-06T22:31:36.355Z,57.60
2018-10-06T22:34:04.033Z,57.92
2018-10-06T22:36:31.652Z,57.92
2018-10-06T22:38:59.312Z,57.96
2018-10-06T22:41:26.973Z,58.07
2018-10-06T22:43:54.620Z,57.99
2018-10-06T22:46:22.276Z,57.94
2018-10-06T22:48:49.989Z,57.90
2018-10-06T22:51:17.588Z,57.97
2018-10-06T22:53:45.172Z,58.14
2018-10-06T22:56:12.848Z,58.05
2018-10-06T22:58:40.517Z,57.79
2018-10-06T23:01:08.352Z,57.84
2018-10-06T23:03:35.981Z,58.03
2018-10-06T23:06:03.581Z,57.99
2018-10-06T23:08:31.168Z,58.00
2018-10-06T23:10:58.839Z,57.77
2018-10-06T23:13:26.479Z,58.08
2018-10-06T23:15:54.137Z,58.02
2018-10-06T23:18:21.816Z,58.15
2018-10-06T23:20:49.501Z,57.96
2018-10-06T23:23:17.199Z,57.97
2018-10-06T23:25:44.860Z,58.08
2018-10-06T23:28:12.526Z,58.18
2018-10-06T23:30:40.139Z,57.94
2018-10-06T23:33:07.761Z,58.08
2018-10-06T23:35:35.368Z,58.15
2018-10-06T23:38:03.018Z,58.01
2018-10-06T23:40:30.663Z,58.17
2018-10-06T23:42:58.363Z,58.22
2018-10-06T23:45:26.055Z,58.24
2018-10-06T23:47:53.696Z,57.94
2018-10-06T23:50:21.394Z,58.01
2018-10-06T23:52:49.009Z,57.97
2018-10-06T23:55:16.659Z,58.13
2018-10-06T23:57:44.276Z,57.80
